Aérodrome :
LOGIN :

S'inscrire | Disclaimer

   EN    FR    IT 

 










Légende :    VFR   VFR Marginal   IFR   IFR Intensif   IFR Très Intensif
Visi : 
Plafond : 
>= 8 km
>= 3000ft
5 à 8 km
1000 à 3000 ft
1500m à 5 km
500 à 1000 ft
800 à 1500m
200 à 500 ft
< 800m
< 200 ft
Symboles :   Orages  Brouillard  Fortes neiges  Fortes précipitations  Vent > 20 kt
SIGMETs :   Divers  Orages  Givrage  Turbulence  Onde Orograph.  Cendres Volcan.






- Altitude de l'aérodrome : 1674 ft
- Code IATA : BRN


LSZB - Bern Belp

DERNIER METAR :
  • 232220Z AUTO VRB03KT 5000 OVC004 M02/M03 Q1027

METARs EXPIRÉS :
  • 232150Z AUTO VRB03KT 5000 OVC005 M02/M03 Q1027
  • 232120Z AUTO VRB02KT 5000 OVC005 M02/M03 Q1027
  • 232050Z AUTO VRB03KT 5000 OVC005 M02/M03 Q1027
  • 232020Z AUTO VRB02KT 4900 OVC005 M02/M03 Q1027
  • 231950Z AUTO VRB02KT 7000 BKN006 M02/M03 Q1026

TAF TAF LSZB
Valide du 23 à 15h jusqu'au 24 à 00h UTC


231425Z 2315/2324 VRB03KT 4000 BR OVC007
BECMG 2318/2321 BKN004
ATIS : +41 22 417 40 76



MET'MAP, la Météo Aéronautique d'un coup d'oeil ! - Copyright ORBIFLY Décembre 2007 - Disclaimer

ORBIFLY MET'MAP TEAM :

Programmation & Développement : Alexandra Zaïnal
Sur une idée originale de : Baudouin d'Aumeries
Assistance à la programmation : Marc-Olivier Méhu
Soutien technique & logistique : Manuel Goepfert

Contact : metmap@orbifly.com




SOURCES & CREDITS :

   NOAA